Time;durP1;ratioP1;P1;durP2;ratioP2;P2;SDS_P1;SDS_P2;PMS_P1;PMS_P2;Temp;Humidity;BMP_temperature;BMP_pressure;BME280_temperature;BME280_humidity;BME280_pressure;Samples;Min_cycle;Max_cycle;Signal;HPM_P1;HPM_P2
2022/05/02 00:00:35;;;;;;;11.30;2.80;;;12.30;1.00;;;;;;5047938;28;20442;-81
2022/05/02 00:03:03;;;;;;;0.60;0.10;;;12.30;1.00;;;;;;5057754;28;20546;-82
2022/05/02 00:05:31;;;;;;;2.27;1.47;;;12.20;1.00;;;;;;5056695;28;20450;-81
2022/05/02 00:08:00;;;;;;;14.73;0.83;;;;;;;;;;5062078;28;20438;-81
2022/05/02 00:10:28;;;;;;;0.70;0.60;;;12.10;1.00;;;;;;5075621;28;20438;-82
2022/05/02 00:12:56;;;;;;;0.60;0.20;;;12.10;1.00;;;;;;5075824;28;20475;-81
2022/05/02 00:15:26;;;;;;;0.60;0.10;;;;;;;;;;5063036;28;20474;-82
2022/05/02 00:17:57;;;;;;;0.60;0.10;;;12.00;1.00;;;;;;5060225;28;20529;-81
2022/05/02 00:20:26;;;;;;;2.50;1.80;;;12.00;1.00;;;;;;5059105;28;20844;-82
2022/05/02 00:22:55;;;;;;;0.60;0.30;;;11.90;1.00;;;;;;5056788;28;20512;-82
2022/05/02 00:25:23;;;;;;;0.70;0.33;;;11.90;1.00;;;;;;5055895;28;20447;-82
2022/05/02 00:27:51;;;;;;;0.77;0.30;;;11.90;1.00;;;;;;5056616;28;20450;-81
2022/05/02 00:30:20;;;;;;;0.80;0.57;;;11.90;1.00;;;;;;5056123;28;20492;-81
2022/05/02 00:32:50;;;;;;;1.83;1.27;;;11.90;1.00;;;;;;5056361;28;20477;-82
2022/05/02 00:35:18;;;;;;;0.60;0.10;;;11.90;1.00;;;;;;5056106;28;20513;-81
2022/05/02 00:37:47;;;;;;;0.60;0.10;;;11.90;1.00;;;;;;5055446;28;20458;-81
2022/05/02 00:40:17;;;;;;;0.60;0.20;;;11.80;1.00;;;;;;5035850;28;20809;-81
2022/05/02 00:42:46;;;;;;;1.57;1.47;;;11.80;1.00;;;;;;5037397;28;20488;-81
2022/05/02 00:45:16;;;;;;;0.60;0.30;;;11.70;1.00;;;;;;5040254;28;20514;-82
2022/05/02 00:47:52;;;;;;;1.03;0.63;;;11.80;1.00;;;;;;5055745;28;20458;-81
2022/05/02 00:50:33;;;;;;;0.60;0.10;;;11.70;1.00;;;;;;5057995;28;20478;-82
2022/05/02 00:53:01;;;;;;;0.60;0.10;;;11.70;1.00;;;;;;5063646;28;20716;-81
2022/05/02 00:55:30;;;;;;;0.60;0.10;;;11.70;1.00;;;;;;5050204;28;20447;-82
2022/05/02 00:57:59;;;;;;;0.97;0.40;;;11.70;1.00;;;;;;5036632;28;20459;-82
2022/05/02 01:00:27;;;;;;;0.60;0.10;;;11.70;1.00;;;;;;5036403;28;20451;-81
2022/05/02 01:02:57;;;;;;;4.50;1.27;;;11.70;1.00;;;;;;5035785;28;20529;-82
2022/05/02 01:05:26;;;;;;;4.63;3.40;;;11.70;1.00;;;;;;5035169;28;20494;-82
2022/05/02 01:07:53;;;;;;;0.60;0.10;;;11.70;1.00;;;;;;5040278;28;20451;-82
2022/05/02 01:10:21;;;;;;;1.90;1.30;;;;;;;;;;5058896;28;20470;-82
2022/05/02 01:12:51;;;;;;;0.60;0.10;;;11.70;1.00;;;;;;5057580;28;20501;-82
2022/05/02 01:15:19;;;;;;;0.60;0.20;;;11.70;1.00;;;;;;5054792;28;20505;-82
2022/05/02 01:17:47;;;;;;;0.60;0.30;;;;;;;;;;5055560;28;20453;-81
2022/05/02 01:20:17;;;;;;;0.60;0.10;;;;;;;;;;5055876;28;20465;-81
2022/05/02 01:22:45;;;;;;;0.60;0.10;;;11.60;1.00;;;;;;5039472;28;21001;-82
2022/05/02 01:25:13;;;;;;;0.60;0.20;;;;;;;;;;5038948;28;20817;-81
2022/05/02 01:27:41;;;;;;;0.60;0.30;;;;;;;;;;5040149;28;20447;-81
2022/05/02 01:30:11;;;;;;;0.60;0.20;;;11.50;1.00;;;;;;5039743;28;20474;-81
2022/05/02 01:32:39;;;;;;;0.60;0.30;;;11.50;1.00;;;;;;5039384;28;20475;-81
2022/05/02 01:35:10;;;;;;;0.60;0.10;;;11.50;1.00;;;;;;5041477;28;20455;-81
2022/05/02 01:37:39;;;;;;;0.70;0.30;;;11.50;1.00;;;;;;5040946;28;20454;-81
2022/05/02 01:40:09;;;;;;;0.60;0.20;;;11.50;1.00;;;;;;5041094;28;20817;-81
2022/05/02 01:42:37;;;;;;;0.70;0.57;;;11.40;1.00;;;;;;5049674;28;20557;-81
2022/05/02 01:45:05;;;;;;;1.67;0.83;;;11.40;1.00;;;;;;5047979;28;20464;-81
2022/05/02 01:47:33;;;;;;;0.70;0.30;;;11.40;1.00;;;;;;5048678;28;20518;-80
2022/05/02 01:50:01;;;;;;;0.60;0.10;;;11.40;1.00;;;;;;5039881;28;20483;-81
2022/05/02 01:52:29;;;;;;;0.60;0.10;;;11.40;1.00;;;;;;5039385;28;20467;-82
2022/05/02 01:54:58;;;;;;;0.60;0.10;;;11.40;1.00;;;;;;5039166;28;20455;-81
2022/05/02 01:57:26;;;;;;;0.60;0.10;;;11.40;1.00;;;;;;5038304;28;20871;-81
2022/05/02 01:59:54;;;;;;;0.60;0.10;;;11.40;1.00;;;;;;5039846;28;20458;-80
2022/05/02 02:02:22;;;;;;;0.60;0.10;;;;;;;;;;5039922;28;20467;-82
2022/05/02 02:07:37;;;;;;;0.70;0.37;;;11.40;1.00;;;;;;5058264;28;20446;-80
2022/05/02 02:10:07;;;;;;;0.60;0.10;;;11.40;1.00;;;;;;5057926;28;20481;-80
2022/05/02 02:12:36;;;;;;;0.60;0.20;;;11.40;1.00;;;;;;5044811;28;20565;-81
2022/05/02 02:15:04;;;;;;;0.60;0.10;;;11.40;1.00;;;;;;5068696;28;20556;-80
2022/05/02 02:17:32;;;;;;;1.00;0.90;;;11.40;1.00;;;;;;5041527;28;20463;-80
2022/05/02 02:20:00;;;;;;;0.60;0.20;;;11.30;1.00;;;;;;5039239;28;20490;-81
2022/05/02 02:22:28;;;;;;;0.60;0.20;;;11.30;1.00;;;;;;5050591;28;20476;-82
2022/05/02 02:24:56;;;;;;;0.70;0.50;;;11.30;1.00;;;;;;5055982;28;20436;-82
2022/05/02 02:27:26;;;;;;;0.60;0.10;;;11.30;1.00;;;;;;5049640;28;20897;-81
2022/05/02 02:29:54;;;;;;;0.60;0.10;;;11.30;1.00;;;;;;5049681;28;20470;-81
2022/05/02 02:32:22;;;;;;;0.60;0.10;;;11.30;1.00;;;;;;5058917;28;20497;-81
2022/05/02 02:34:50;;;;;;;0.60;0.10;;;11.30;1.00;;;;;;5059907;28;20454;-82
2022/05/02 02:37:18;;;;;;;0.60;0.10;;;11.20;1.00;;;;;;5070659;28;20521;-82
2022/05/02 02:39:47;;;;;;;0.60;0.10;;;11.20;1.00;;;;;;5061968;28;20575;-82
2022/05/02 02:42:15;;;;;;;0.60;0.20;;;11.20;1.00;;;;;;5060294;28;20462;-81
2022/05/02 02:44:45;;;;;;;0.60;0.10;;;;;;;;;;5059349;28;20544;-82
2022/05/02 02:47:13;;;;;;;0.60;0.20;;;11.20;1.00;;;;;;5042769;28;20447;-81
2022/05/02 02:49:41;;;;;;;0.77;0.77;;;11.20;1.00;;;;;;5037432;28;21017;-82
2022/05/02 02:52:09;;;;;;;0.60;0.10;;;11.20;1.00;;;;;;5037787;28;20451;-81
2022/05/02 02:54:37;;;;;;;3.23;2.20;;;11.20;1.00;;;;;;5039289;28;20478;-81
2022/05/02 02:57:06;;;;;;;0.63;0.27;;;11.10;1.00;;;;;;5039424;28;20542;-82
2022/05/02 02:59:34;;;;;;;0.70;0.40;;;11.20;1.00;;;;;;5038241;28;20458;-81
2022/05/02 03:02:06;;;;;;;0.60;0.20;;;11.20;1.00;;;;;;5037995;28;20495;-81
2022/05/02 03:07:20;;;;;;;0.70;0.50;;;11.20;1.00;;;;;;5038184;28;20531;-81
2022/05/02 03:09:48;;;;;;;1.77;1.67;;;;;;;;;;5044001;28;20474;-81
2022/05/02 03:12:16;;;;;;;0.60;0.10;;;11.20;1.00;;;;;;5059170;28;20489;-81
2022/05/02 03:14:44;;;;;;;0.60;0.10;;;11.30;1.00;;;;;;5057756;28;20447;-84
2022/05/02 03:17:14;;;;;;;0.60;0.20;;;11.30;1.00;;;;;;5057955;28;20928;-81
2022/05/02 03:19:42;;;;;;;0.60;0.10;;;11.30;1.00;;;;;;5059732;28;20542;-82
2022/05/02 03:22:10;;;;;;;1.67;1.17;;;;;;;;;;5060454;28;20458;-81
2022/05/02 03:24:38;;;;;;;0.70;0.40;;;11.30;1.00;;;;;;5057742;28;20450;-81
2022/05/02 03:27:06;;;;;;;0.60;0.10;;;11.30;1.00;;;;;;5047711;28;20437;-83
2022/05/02 03:29:36;;;;;;;0.60;0.20;;;11.40;1.00;;;;;;5051586;28;20463;-82
2022/05/02 03:32:04;;;;;;;0.60;0.10;;;11.40;1.00;;;;;;5054583;28;20509;-81
2022/05/02 03:34:34;;;;;;;0.60;0.10;;;11.40;1.00;;;;;;5054751;28;20442;-82
2022/05/02 03:37:02;;;;;;;0.60;0.30;;;;;;;;;;5055134;28;20454;-81
2022/05/02 03:39:30;;;;;;;0.60;0.10;;;11.40;1.00;;;;;;5055441;28;20449;-82
2022/05/02 03:41:58;;;;;;;0.60;0.10;;;11.40;1.00;;;;;;5055944;28;20499;-81
2022/05/02 03:44:26;;;;;;;0.60;0.10;;;11.30;1.00;;;;;;5055481;28;20489;-82
2022/05/02 03:46:54;;;;;;;0.70;0.40;;;11.30;1.00;;;;;;5045260;28;20458;-82
2022/05/02 03:49:22;;;;;;;1.10;0.77;;;11.30;1.00;;;;;;5039915;28;20436;-81
2022/05/02 03:51:51;;;;;;;0.60;0.10;;;11.30;1.00;;;;;;5041596;28;20563;-82
2022/05/02 03:54:19;;;;;;;0.60;0.10;;;11.30;1.00;;;;;;5055769;28;20443;-82
2022/05/02 03:56:47;;;;;;;0.60;0.10;;;11.20;1.00;;;;;;5075705;28;20433;-82
2022/05/02 03:59:15;;;;;;;0.60;0.10;;;11.20;1.00;;;;;;5076447;28;20474;-81
2022/05/02 04:01:45;;;;;;;0.60;0.20;;;11.20;1.00;;;;;;5076207;28;20469;-80
2022/05/02 04:04:13;;;;;;;0.60;0.30;;;11.10;1.00;;;;;;5059348;28;20507;-81
2022/05/02 04:06:41;;;;;;;1.37;1.03;;;11.10;1.00;;;;;;5056628;28;20452;-82
2022/05/02 04:09:11;;;;;;;1.90;1.80;;;;;;;;;;5051659;28;20454;-82
2022/05/02 04:11:39;;;;;;;0.60;0.10;;;11.00;1.00;;;;;;5057248;28;20490;-81
2022/05/02 04:14:07;;;;;;;0.97;0.60;;;11.00;1.00;;;;;;5069364;28;20437;-81
2022/05/02 04:16:35;;;;;;;0.60;0.10;;;11.00;1.00;;;;;;5073489;28;20446;-81
2022/05/02 04:19:03;;;;;;;1.83;1.07;;;11.00;1.00;;;;;;5071403;28;20461;-82
2022/05/02 04:21:31;;;;;;;0.60;0.10;;;11.00;1.00;;;;;;5057982;28;20443;-81
2022/05/02 04:24:00;;;;;;;0.60;0.10;;;11.00;1.00;;;;;;5057508;28;20479;-82
2022/05/02 04:26:29;;;;;;;12.67;1.53;;;10.90;1.00;;;;;;5048956;28;20543;-81
2022/05/02 04:28:57;;;;;;;1.63;1.30;;;10.90;1.00;;;;;;5037067;28;20446;-82
2022/05/02 04:31:25;;;;;;;0.70;0.30;;;10.90;1.00;;;;;;5036594;28;20862;-82
2022/05/02 04:33:53;;;;;;;0.70;0.37;;;10.80;1.00;;;;;;5036913;28;20494;-82
2022/05/02 04:36:21;;;;;;;0.60;0.10;;;10.90;1.00;;;;;;5036970;28;20534;-82
2022/05/02 04:38:50;;;;;;;2.30;1.50;;;;;;;;;;5036587;28;20513;-81
2022/05/02 04:41:18;;;;;;;0.60;0.10;;;10.90;1.00;;;;;;5036622;28;20451;-81
2022/05/02 04:43:51;;;;;;;0.60;0.30;;;10.90;1.00;;;;;;5038309;28;20514;-82
2022/05/02 04:46:20;;;;;;;0.60;0.23;;;10.90;1.00;;;;;;5048085;28;20529;-81
2022/05/02 04:48:48;;;;;;;1.40;1.30;;;10.80;1.00;;;;;;5050964;28;20438;-81
2022/05/02 04:51:16;;;;;;;0.83;0.73;;;10.90;1.00;;;;;;5056346;28;20470;-81
2022/05/02 04:53:44;;;;;;;1.00;0.50;;;10.90;1.00;;;;;;5059052;28;20462;-82
2022/05/02 04:56:12;;;;;;;1.37;1.07;;;10.90;1.00;;;;;;5063775;28;20455;-82
2022/05/02 04:58:40;;;;;;;0.87;0.53;;;10.90;1.00;;;;;;5060127;28;20939;-81
2022/05/02 05:01:10;;;;;;;1.30;0.63;;;10.90;1.00;;;;;;5060751;28;20453;-82
2022/05/02 05:03:38;;;;;;;0.70;0.57;;;10.90;1.00;;;;;;5061578;28;20816;-83
2022/05/02 05:06:07;;;;;;;0.60;0.10;;;10.90;1.00;;;;;;5062988;28;20529;-82
2022/05/02 05:08:35;;;;;;;9.33;2.30;;;11.00;1.00;;;;;;5062939;28;20454;-81
2022/05/02 05:11:17;;;;;;;0.60;0.20;;;11.00;1.00;;;;;;5057277;28;20625;-83
2022/05/02 05:16:20;;;;;;;0.60;0.10;;;11.10;1.00;;;;;;5063761;28;20464;-81
2022/05/02 05:16:53;;;;;;;1.37;0.87;;;11.10;1.00;;;;;;5069470;28;20449;-82
2022/05/02 05:19:35;;;;;;;1.03;0.93;;;11.20;1.00;;;;;;5060253;28;20790;-81
2022/05/02 05:22:14;;;;;;;1.10;0.73;;;11.20;1.00;;;;;;5061292;28;21220;-83
2022/05/02 05:25:15;;;;;;;3.20;1.40;;;11.20;1.00;;;;;;5062341;28;20959;-81
2022/05/02 05:27:51;;;;;;;1.23;1.13;;;11.30;1.00;;;;;;5046546;28;20513;-82
2022/05/02 05:30:21;;;;;;;3.33;3.03;;;11.30;1.00;;;;;;5045449;28;20532;-82
2022/05/02 05:33:05;;;;;;;2.10;1.90;;;11.30;1.00;;;;;;5062963;28;20514;-82
2022/05/02 05:35:44;;;;;;;0.60;0.20;;;11.40;1.00;;;;;;5081030;28;20429;-82
2022/05/02 05:38:18;;;;;;;0.60;0.30;;;11.50;1.00;;;;;;5086056;28;20438;-81
2022/05/02 05:40:54;;;;;;;0.83;0.40;;;11.50;1.00;;;;;;5084232;28;20508;-82
2022/05/02 05:43:38;;;;;;;0.70;0.30;;;11.60;1.00;;;;;;5073310;28;20461;-84
2022/05/02 05:46:40;;;;;;;3.37;2.80;;;11.60;1.00;;;;;;5074643;28;20552;-80
2022/05/02 05:49:22;;;;;;;1.33;1.07;;;11.50;1.00;;;;;;5041491;28;20538;-82
2022/05/02 05:52:04;;;;;;;0.60;0.10;;;11.50;1.00;;;;;;5063766;28;20517;-83
2022/05/02 05:54:41;;;;;;;1.00;0.40;;;11.50;1.00;;;;;;5065429;28;20500;-82
2022/05/02 05:57:24;;;;;;;1.13;0.50;;;11.60;1.00;;;;;;5062198;28;20450;-82
2022/05/02 06:00:09;;;;;;;0.80;0.70;;;11.50;1.00;;;;;;5062882;28;21044;-82
2022/05/02 06:02:49;;;;;;;2.50;1.00;;;11.50;1.00;;;;;;5061453;28;20490;-84
2022/05/02 06:05:19;;;;;;;0.60;0.10;;;11.50;1.00;;;;;;5068177;28;20454;-82
2022/05/02 06:07:48;;;;;;;0.60;0.10;;;;;;;;;;5067560;28;20929;-82
2022/05/02 06:10:17;;;;;;;0.97;0.87;;;11.70;1.00;;;;;;5063573;28;20520;-82
2022/05/02 06:12:46;;;;;;;0.60;0.10;;;11.70;1.00;;;;;;5050865;28;20479;-83
2022/05/02 06:20:53;;;;;;;1.60;1.50;;;11.80;1.00;;;;;;5042847;28;20493;-82
2022/05/02 06:23:23;;;;;;;1.43;1.30;;;11.90;1.00;;;;;;5044035;28;20467;-81
2022/05/02 06:25:54;;;;;;;0.70;0.30;;;11.90;1.00;;;;;;5056987;28;20438;-80
2022/05/02 06:28:27;;;;;;;0.60;0.10;;;11.90;1.00;;;;;;5068911;28;20518;-81
2022/05/02 06:30:59;;;;;;;0.70;0.30;;;12.00;1.00;;;;;;5058146;28;20460;-80
2022/05/02 06:33:28;;;;;;;0.60;0.20;;;12.00;1.00;;;;;;5058426;28;20486;-82
2022/05/02 06:36:18;;;;;;;1.10;0.53;;;12.10;1.00;;;;;;5050077;28;20436;-82
2022/05/02 06:38:54;;;;;;;0.60;0.30;;;12.20;1.00;;;;;;5047481;28;20464;-81
2022/05/02 06:41:39;;;;;;;0.70;0.50;;;12.30;1.00;;;;;;5048619;28;20430;-80
2022/05/02 06:44:14;;;;;;;0.60;0.20;;;12.30;1.00;;;;;;5047970;28;20468;-82
2022/05/02 06:46:48;;;;;;;0.60;0.10;;;12.40;1.00;;;;;;5042516;28;20428;-82
2022/05/02 06:49:17;;;;;;;0.60;0.10;;;12.40;1.00;;;;;;5043943;28;20500;-81
2022/05/02 06:51:57;;;;;;;0.60;0.10;;;12.60;1.00;;;;;;5061734;28;20459;-82
2022/05/02 06:54:38;;;;;;;0.60;0.20;;;12.70;1.00;;;;;;5072526;28;20470;-81
2022/05/02 06:57:16;;;;;;;2.27;2.13;;;12.80;1.00;;;;;;5073706;28;20446;-82
2022/05/02 06:59:53;;;;;;;0.60;0.20;;;12.80;1.00;;;;;;5077233;28;20443;-83
2022/05/02 07:02:39;;;;;;;0.70;0.50;;;12.80;1.00;;;;;;5074198;28;20838;-82
2022/05/02 07:05:19;;;;;;;0.60;0.30;;;13.00;1.00;;;;;;5074735;28;20461;-82
2022/05/02 07:07:59;;;;;;;0.60;0.10;;;13.10;1.00;;;;;;5073782;28;20460;-82
2022/05/02 07:10:32;;;;;;;0.60;0.20;;;13.10;1.00;;;;;;5063626;28;20516;-82
2022/05/02 07:13:13;;;;;;;1.83;1.07;;;13.20;1.00;;;;;;5063692;28;20511;-82
2022/05/02 07:15:45;;;;;;;0.80;0.73;;;13.20;1.00;;;;;;5056154;28;20452;-81
2022/05/02 07:18:31;;;;;;;0.60;0.10;;;13.30;1.00;;;;;;5050758;28;20448;-81
2022/05/02 07:21:19;;;;;;;0.60;0.10;;;13.40;1.00;;;;;;5051691;28;20442;-82
2022/05/02 07:24:17;;;;;;;0.60;0.30;;;13.50;1.00;;;;;;5055068;28;20442;-81
2022/05/02 07:26:54;;;;;;;0.60;0.10;;;13.80;1.00;;;;;;5064467;28;20502;-81
2022/05/02 07:29:25;;;;;;;0.60;0.10;;;13.90;1.00;;;;;;5070137;28;20518;-81
2022/05/02 07:31:53;;;;;;;0.60;0.10;;;;;;;;;;5056277;28;20468;-82
2022/05/02 07:34:23;;;;;;;0.60;0.10;;;14.20;1.00;;;;;;5053070;28;20477;-81
2022/05/02 07:36:53;;;;;;;0.60;0.10;;;14.20;1.00;;;;;;5051296;28;20462;-81
2022/05/02 07:39:24;;;;;;;0.60;0.10;;;14.30;1.00;;;;;;5050705;28;20461;-81
2022/05/02 07:41:53;;;;;;;0.60;0.10;;;14.40;1.00;;;;;;5049012;28;20505;-81
2022/05/02 07:44:24;;;;;;;0.60;0.30;;;14.40;1.00;;;;;;5047419;28;20482;-82
2022/05/02 07:46:58;;;;;;;0.60;0.10;;;14.50;1.00;;;;;;5042346;28;20881;-81
2022/05/02 07:49:29;;;;;;;0.60;0.10;;;14.50;1.00;;;;;;5040376;28;20551;-81
2022/05/02 07:52:00;;;;;;;0.60;0.10;;;14.70;1.00;;;;;;5039957;28;20473;-82
2022/05/02 07:54:31;;;;;;;0.70;0.37;;;14.70;1.00;;;;;;5040014;28;20540;-82
2022/05/02 07:57:01;;;;;;;0.60;0.10;;;14.70;1.00;;;;;;5038309;28;20511;-82
2022/05/02 07:59:34;;;;;;;0.60;0.10;;;14.80;1.00;;;;;;5039001;28;20444;-81
2022/05/02 08:02:03;;;;;;;0.70;0.40;;;14.80;1.00;;;;;;5038654;28;20541;-82
2022/05/02 08:04:31;;;;;;;2.07;1.57;;;;;;;;;;5053699;28;20470;-81
2022/05/02 08:07:11;;;;;;;0.60;0.10;;;14.90;1.00;;;;;;5061446;28;20515;-82
2022/05/02 08:10:30;;;;;;;0.60;0.20;;;14.90;1.00;;;;;;5060064;28;20472;-82
2022/05/02 08:13:07;;;;;;;1.07;0.97;;;15.00;1.00;;;;;;5058528;28;20489;-83
2022/05/02 08:15:45;;;;;;;2.10;1.13;;;15.10;1.00;;;;;;5058979;28;20542;-82
2022/05/02 08:18:32;;;;;;;0.60;0.10;;;15.10;1.00;;;;;;5057058;28;20525;-81
2022/05/02 08:21:03;;;;;;;0.70;0.47;;;15.20;99.90;;;;;;5037131;28;20488;-81
2022/05/02 08:29:54;;;;;;;0.60;0.10;;;15.30;99.90;;;;;;5059958;28;20543;-82
2022/05/02 08:32:33;;;;;;;0.60;0.20;;;15.50;99.90;;;;;;5056691;28;20502;-81
2022/05/02 08:35:07;;;;;;;0.73;0.30;;;15.50;99.90;;;;;;5052243;28;20445;-82
2022/05/02 08:37:48;;;;;;;2.03;1.00;;;;;;;;;;5037083;28;20547;-81
2022/05/02 08:40:30;;;;;;;0.60;0.10;;;15.50;99.90;;;;;;5037023;28;20436;-81
2022/05/02 08:43:34;;;;;;;0.60;0.10;;;15.50;99.90;;;;;;5036510;28;20474;-82
2022/05/02 08:46:46;;;;;;;0.60;0.10;;;15.40;99.90;;;;;;5002872;28;20886;-81
2022/05/02 08:49:45;;;;;;;0.60;0.20;;;15.40;99.90;;;;;;5051396;28;20454;-81
2022/05/02 08:52:54;;;;;;;0.60;0.20;;;15.50;99.90;;;;;;5051959;28;20477;-82
2022/05/02 08:55:43;;;;;;;0.60;0.10;;;15.50;99.90;;;;;;5066156;28;20449;-82
2022/05/02 08:58:48;;;;;;;0.60;0.10;;;15.60;99.90;;;;;;5071774;28;20433;-83
2022/05/02 09:01:37;;;;;;;0.60;0.10;;;15.80;99.90;;;;;;5075253;28;20544;-82
2022/05/02 09:04:39;;;;;;;0.80;0.37;;;15.90;99.90;;;;;;5065865;28;20451;-81
2022/05/02 09:07:55;;;;;;;0.60;0.10;;;16.00;99.90;;;;;;5045405;28;20492;-82
2022/05/02 09:10:30;;;;;;;0.60;0.30;;;16.10;99.90;;;;;;5028234;28;20470;-81
2022/05/02 09:13:46;;;;;;;0.60;0.10;;;16.20;99.90;;;;;;5038665;28;20494;-82
2022/05/02 09:16:53;;;;;;;0.60;0.10;;;16.20;99.90;;;;;;5028480;28;20456;-81
2022/05/02 09:19:57;;;;;;;0.60;0.30;;;16.30;99.90;;;;;;5054425;28;20424;-81
2022/05/02 09:23:15;;;;;;;0.60;0.10;;;16.40;99.90;;;;;;5054932;28;20464;-83
2022/05/02 09:26:20;;;;;;;0.60;0.10;;;16.60;99.90;;;;;;5054826;28;20445;-81
2022/05/02 09:29:09;;;;;;;0.60;0.10;;;16.60;99.90;;;;;;5060422;28;20527;-81
2022/05/02 09:31:52;;;;;;;0.60;0.10;;;16.80;99.90;;;;;;5066346;28;20496;-81
2022/05/02 09:34:36;;;;;;;0.60;0.10;;;17.00;99.90;;;;;;5059440;28;20494;-79
2022/05/02 09:37:06;;;;;;;0.60;0.20;;;17.20;99.90;;;;;;5050530;28;20796;-82
2022/05/02 09:39:46;;;;;;;0.97;0.50;;;17.30;99.90;;;;;;5049793;28;20434;-85
2022/05/02 09:42:39;;;;;;;0.60;0.10;;;17.30;99.90;;;;;;5037662;28;20469;-83
2022/05/02 09:51:10;;;;;;;0.60;0.20;;;17.90;99.90;;;;;;5061162;28;20639;-84
2022/05/02 09:53:53;;;;;;;0.60;0.20;;;18.00;99.90;;;;;;5059803;28;20493;-84
2022/05/02 09:56:40;;;;;;;0.60;0.20;;;18.10;99.90;;;;;;5059986;28;20442;-83
2022/05/02 09:59:10;;;;;;;0.60;0.10;;;18.00;99.90;;;;;;5046482;28;20435;-79
2022/05/02 10:01:46;;;;;;;0.60;0.10;;;18.20;99.90;;;;;;5057820;28;20475;-84
2022/05/02 10:04:42;;;;;;;0.60;0.10;;;18.20;99.90;;;;;;5059317;28;20435;-83
2022/05/02 10:07:12;;;;;;;3.33;1.30;;;18.20;99.90;;;;;;5055046;28;20540;-86
2022/05/02 10:09:59;;;;;;;2.83;2.73;;;18.20;99.90;;;;;;5053651;28;20433;-84
2022/05/02 10:12:33;;;;;;;1.07;0.53;;;18.30;99.90;;;;;;5061706;28;20574;-85
2022/05/02 10:15:07;;;;;;;0.60;0.20;;;;;;;;;;5062554;28;20510;-83
2022/05/02 10:18:00;;;;;;;0.60;0.20;;;18.40;99.90;;;;;;5062875;28;20439;-83
2022/05/02 10:20:45;;;;;;;0.60;0.20;;;18.60;99.90;;;;;;5060899;28;20567;-84
2022/05/02 10:23:46;;;;;;;0.60;0.10;;;18.80;99.90;;;;;;5062148;28;20487;-84
2022/05/02 10:26:27;;;;;;;0.60;0.20;;;19.00;99.90;;;;;;5056486;28;20475;-85
2022/05/02 10:29:34;;;;;;;0.70;0.30;;;19.30;99.90;;;;;;5051825;28;20485;-85
2022/05/02 10:32:08;;;;;;;0.80;0.57;;;19.30;99.90;;;;;;5048019;28;20541;-84
2022/05/02 10:34:41;;;;;;;0.70;0.43;;;19.30;99.90;;;;;;5064089;28;20477;-84
2022/05/02 10:37:14;;;;;;;0.70;0.40;;;19.10;99.90;;;;;;5063890;28;20450;-85
2022/05/02 10:39:47;;;;;;;0.80;0.47;;;19.00;99.90;;;;;;5066664;28;20500;-84
2022/05/02 10:42:19;;;;;;;0.60;0.20;;;18.90;99.90;;;;;;5052727;28;20477;-85
2022/05/02 10:44:55;;;;;;;0.60;0.20;;;18.90;99.90;;;;;;5041396;28;20477;-83
2022/05/02 10:47:27;;;;;;;1.63;1.30;;;18.80;99.90;;;;;;5042061;28;20439;-84
2022/05/02 10:50:12;;;;;;;0.60;0.10;;;18.80;99.90;;;;;;5042386;28;20434;-84
2022/05/02 10:53:03;;;;;;;0.60;0.20;;;18.80;99.90;;;;;;5050887;28;20493;-84
2022/05/02 10:55:32;;;;;;;0.70;0.43;;;;;;;;;;5051669;28;20511;-84
2022/05/02 10:58:03;;;;;;;0.70;0.20;;;18.70;99.90;;;;;;5056406;28;20458;-83
2022/05/02 11:00:33;;;;;;;0.70;0.50;;;18.60;99.90;;;;;;5062801;28;20936;-84
2022/05/02 11:03:25;;;;;;;0.60;0.10;;;18.70;99.90;;;;;;5049016;28;20465;-85
2022/05/02 11:06:03;;;;;;;0.60;0.20;;;18.50;99.90;;;;;;5050406;28;20437;-85
2022/05/02 11:08:43;;;;;;;0.60;0.10;;;18.50;99.90;;;;;;5045003;28;20452;-84
2022/05/02 11:11:23;;;;;;;0.70;0.30;;;18.60;99.90;;;;;;5044125;28;20458;-83
2022/05/02 11:14:10;;;;;;;1.17;0.87;;;16.90;99.90;;;;;;5046227;28;20476;-84
2022/05/02 11:16:47;;;;;;;0.60;0.10;;;18.80;99.90;;;;;;5066685;28;20475;-83
2022/05/02 11:22:26;;;;;;;0.60;0.10;;;19.10;99.90;;;;;;5009748;28;20495;-84
2022/05/02 11:25:06;;;;;;;2.10;1.87;;;19.40;99.90;;;;;;5056126;28;20446;-83
2022/05/02 11:27:51;;;;;;;0.70;0.23;;;19.40;99.90;;;;;;5062204;28;20489;-86
2022/05/02 11:30:23;;;;;;;0.60;0.10;;;19.50;99.90;;;;;;5065098;28;20459;-83
2022/05/02 11:33:11;;;;;;;0.60;0.10;;;19.50;99.90;;;;;;5070383;28;20453;-84
2022/05/02 11:35:41;;;;;;;0.60;0.20;;;19.70;99.90;;;;;;5074787;28;20461;-85
2022/05/02 11:38:29;;;;;;;0.60;0.17;;;19.70;99.90;;;;;;5083344;28;20535;-85
2022/05/02 11:41:06;;;;;;;0.60;0.10;;;19.90;99.90;;;;;;5084129;28;20530;-85
2022/05/02 11:43:37;;;;;;;0.60;0.10;;;20.00;99.90;;;;;;5067114;28;20473;-85
2022/05/02 11:46:17;;;;;;;0.60;0.20;;;19.70;99.90;;;;;;5052334;28;20461;-85
2022/05/02 11:49:09;;;;;;;0.70;0.17;;;20.30;99.90;;;;;;5041845;28;20450;-84
2022/05/02 11:51:44;;;;;;;0.70;0.40;;;20.30;99.90;;;;;;5055976;28;20469;-84
2022/05/02 11:54:33;;;;;;;1.23;0.83;;;20.30;99.90;;;;;;5066954;28;20444;-84
2022/05/02 11:57:14;;;;;;;0.60;0.17;;;20.40;99.90;;;;;;5058286;28;20465;-85
2022/05/02 11:59:52;;;;;;;0.60;0.10;;;20.40;99.90;;;;;;5047892;28;20455;-85
2022/05/02 12:02:32;;;;;;;0.70;0.20;;;20.40;99.90;;;;;;5049777;28;20795;-83
2022/05/02 12:05:05;;;;;;;0.70;0.10;;;20.40;99.90;;;;;;5047130;28;20431;-85
2022/05/02 12:07:34;;;;;;;0.70;0.50;;;20.40;99.90;;;;;;5044714;28;20485;-85
2022/05/02 12:10:14;;;;;;;0.70;0.10;;;;;;;;;;5042941;28;20433;-82
2022/05/02 12:12:50;;;;;;;0.70;0.20;;;20.60;99.90;;;;;;5064674;28;20472;-84
2022/05/02 12:15:19;;;;;;;0.70;0.10;;;;;;;;;;5062130;28;20478;-84
2022/05/02 12:17:56;;;;;;;0.60;0.10;;;;;;;;;;5064804;28;20453;-85
2022/05/02 12:23:37;;;;;;;0.70;0.20;;;20.70;99.90;;;;;;5038388;28;21020;-83
2022/05/02 12:26:16;;;;;;;0.70;0.20;;;20.70;99.90;;;;;;5063694;28;20464;-86
2022/05/02 12:28:47;;;;;;;0.60;0.20;;;;;;;;;;5063103;28;20459;-86
2022/05/02 12:31:17;;;;;;;0.70;0.17;;;;;;;;;;5061674;28;20462;-85
2022/05/02 12:33:50;;;;;;;0.70;0.20;;;21.10;99.90;;;;;;5059669;28;20534;-83
2022/05/02 12:36:19;;;;;;;0.70;0.50;;;21.20;99.90;;;;;;5059711;28;20482;-84
2022/05/02 12:38:51;;;;;;;0.97;0.37;;;;;;;;;;5063339;28;20462;-84
2022/05/02 12:41:26;;;;;;;0.70;0.10;;;21.10;99.90;;;;;;5062026;28;20431;-83
2022/05/02 12:44:06;;;;;;;0.70;0.20;;;21.10;99.90;;;;;;5048019;28;20451;-85
2022/05/02 12:46:39;;;;;;;0.70;0.20;;;21.10;99.90;;;;;;5057973;28;20438;-84
2022/05/02 12:49:22;;;;;;;0.80;0.40;;;21.20;99.90;;;;;;5060357;28;20919;-85
2022/05/02 12:51:53;;;;;;;0.70;0.20;;;21.40;99.90;;;;;;5071050;28;20450;-85
2022/05/02 12:55:16;;;;;;;0.80;0.40;;;21.10;99.90;;;;;;5057770;28;20462;-86
2022/05/02 13:00:43;;;;;;;0.70;0.50;;;21.20;99.90;;;;;;5049379;28;20508;-84
2022/05/02 13:03:32;;;;;;;0.70;0.20;;;;;;;;;;5042428;28;20463;-84
2022/05/02 13:06:18;;;;;;;0.67;0.20;;;21.20;99.90;;;;;;5052852;28;20440;-85
2022/05/02 13:08:49;;;;;;;1.53;0.80;;;;;;;;;;5033388;28;20465;-84
2022/05/02 13:11:21;;;;;;;2.80;2.70;;;;;;;;;;5042537;28;20533;-84
2022/05/02 13:13:52;;;;;;;0.70;0.20;;;;;;;;;;5044145;28;20463;-85
2022/05/02 13:16:28;;;;;;;0.90;0.40;;;;;;;;;;5042087;28;20485;-86
2022/05/02 13:19:03;;;;;;;1.13;0.60;;;;;;;;;;5042860;28;20549;-83
2022/05/02 13:21:32;;;;;;;0.80;0.40;;;;;;;;;;5045960;28;20442;-86
2022/05/02 13:24:07;;;;;;;0.70;0.20;;;;;;;;;;5043749;28;20461;-85
2022/05/02 13:26:56;;;;;;;0.70;0.10;;;;;;;;;;5046594;28;20438;-85
2022/05/02 13:29:30;;;;;;;0.67;0.10;;;;;;;;;;5051800;28;20929;-85
2022/05/02 13:32:06;;;;;;;0.60;0.10;;;21.00;99.90;;;;;;5072104;28;20485;-84
2022/05/02 13:34:50;;;;;;;0.70;0.20;;;21.10;99.90;;;;;;5073040;28;20461;-85
2022/05/02 13:37:40;;;;;;;0.70;0.13;;;21.30;99.90;;;;;;5063318;28;20456;-85
2022/05/02 13:40:10;;;;;;;0.70;0.10;;;21.50;99.90;;;;;;5061693;28;20536;-84
2022/05/02 13:42:52;;;;;;;0.70;0.10;;;21.40;99.90;;;;;;5047996;28;20460;-85
2022/05/02 13:45:41;;;;;;;0.70;0.10;;;;;;;;;;5043385;28;20455;-84
2022/05/02 13:48:26;;;;;;;0.70;0.10;;;21.30;99.90;;;;;;5044449;28;20470;-85
2022/05/02 13:51:04;;;;;;;0.70;0.20;;;21.40;99.90;;;;;;5047089;28;20445;-85
2022/05/02 13:53:45;;;;;;;0.70;0.10;;;21.60;99.90;;;;;;5051020;28;20466;-86
2022/05/02 13:56:30;;;;;;;0.70;0.10;;;21.90;99.90;;;;;;5043172;28;20514;-86
2022/05/02 13:59:04;;;;;;;0.70;0.20;;;22.20;99.90;;;;;;5061492;28;20492;-84
2022/05/02 14:01:36;;;;;;;0.70;0.13;;;;;;;;;;5043433;28;20454;-86
2022/05/02 14:04:17;;;;;;;0.70;0.10;;;22.50;99.90;;;;;;5056422;28;20538;-85
2022/05/02 14:07:09;;;;;;;0.70;0.20;;;;;;;;;;5066819;28;20480;-86
2022/05/02 14:09:44;;;;;;;0.70;0.10;;;22.50;99.90;;;;;;5065872;28;20438;-85
2022/05/02 14:12:30;;;;;;;0.70;0.10;;;22.60;99.90;;;;;;5068404;28;20476;-84
2022/05/02 14:15:00;;;;;;;0.70;0.10;;;22.80;99.90;;;;;;5063627;28;20438;-86
2022/05/02 14:17:33;;;;;;;0.70;0.20;;;23.00;99.90;;;;;;5065850;28;20478;-84
2022/05/02 14:20:14;;;;;;;0.70;0.27;;;23.00;99.90;;;;;;5065214;28;20451;-86
2022/05/02 14:22:44;;;;;;;0.70;0.10;;;22.30;99.90;;;;;;5066728;28;20483;-86